Time;durP1;ratioP1;P1;durP2;ratioP2;P2;SDS_P1;SDS_P2;PMS_P1;PMS_P2;Temp;Humidity;BMP_temperature;BMP_pressure;BME280_temperature;BME280_humidity;BME280_pressure;Samples;Min_cycle;Max_cycle;Signal;HPM_P1;HPM_P2
2022/06/02 00:00:50;;;;;;;10.48;8.77;;;;;;;17.14;84.73;100078.06;4951343;29;20053;-64
2022/06/02 00:03:18;;;;;;;9.93;7.78;;;;;;;17.21;84.29;100076.91;4951095;29;20055;-65
2022/06/02 00:05:56;;;;;;;14.13;8.63;;;;;;;17.28;83.95;100074.88;4970796;28;20064;-64
2022/06/02 00:08:34;;;;;;;11.95;8.75;;;;;;;17.07;84.66;100079.25;5011871;28;20032;-64
2022/06/02 00:11:25;;;;;;;11.48;8.82;;;;;;;17.20;84.12;100082.19;5011996;28;20034;-63
2022/06/02 00:14:04;;;;;;;12.90;9.32;;;;;;;17.17;84.48;100079.72;4992092;28;20037;-62
2022/06/02 00:16:56;;;;;;;12.07;9.40;;;;;;;16.93;86.41;100079.84;4995803;28;20038;-62
2022/06/02 00:19:27;;;;;;;10.35;9.07;;;;;;;17.06;85.37;100082.81;5001626;28;20088;-62
2022/06/02 00:22:08;;;;;;;10.98;8.88;;;;;;;16.85;84.58;100030.41;5010170;28;20034;-62
2022/06/02 00:24:34;;;;;;;11.00;9.47;;;;;;;17.12;85.11;100076.47;5011793;28;20386;-64
2022/06/02 00:26:59;;;;;;;14.43;9.57;;;;;;;17.04;85.63;100072.38;5012003;28;20030;-63
2022/06/02 00:29:34;;;;;;;14.30;9.65;;;;;;;17.02;85.36;100081.22;5011580;28;20530;-62
2022/06/02 00:32:06;;;;;;;16.00;9.82;;;;;;;17.14;84.76;100080.69;5011523;28;20076;-62
2022/06/02 00:34:41;;;;;;;12.35;9.40;;;;;;;17.21;84.29;100086.53;5010244;28;20026;-63
2022/06/02 00:37:29;;;;;;;12.02;8.70;;;;;;;17.23;83.99;100095.19;5011671;28;20760;-63
2022/06/02 00:39:55;;;;;;;12.60;8.57;;;;;;;17.32;83.28;100091.31;5011103;28;20034;-63
2022/06/02 00:42:41;;;;;;;10.57;8.70;;;;;;;17.24;83.46;100096.88;5011171;28;20026;-63
2022/06/02 00:45:06;;;;;;;10.38;8.63;;;;;;;17.11;84.36;100090.47;4970592;28;20033;-63
2022/06/02 00:47:47;;;;;;;11.50;8.18;;;;;;;16.85;84.78;100085.34;5011593;28;20116;-64
2022/06/02 00:50:34;;;;;;;9.20;8.25;;;;;;;16.98;84.33;100072.63;5009894;28;20046;-64
2022/06/02 00:53:22;;;;;;;10.80;8.25;;;;;;;16.99;84.25;100058.66;5010043;28;20057;-63
2022/06/02 00:58:55;;;;;;;10.93;8.35;;;;;;;17.08;83.56;100066.09;5011606;28;20034;-63
2022/06/02 01:01:27;;;;;;;7.68;6.82;;;;;;;17.14;82.97;100059.75;5008527;28;20364;-64
2022/06/02 01:03:55;;;;;;;10.82;8.10;;;;;;;17.16;83.02;100065.78;5004509;28;20104;-63
2022/06/02 01:06:23;;;;;;;13.00;8.52;;;;;;;17.22;82.86;100059.44;5013973;28;20079;-64
2022/06/02 01:09:30;;;;;;;13.60;7.85;;;;;;;17.21;82.55;100060.34;5010643;28;20031;-64
2022/06/02 01:12:23;;;;;;;11.00;7.72;;;;;;;17.04;83.10;100059.28;5008270;28;20115;-64
2022/06/02 01:15:20;;;;;;;8.68;7.78;;;;;;;17.14;82.73;100058.91;5012595;28;20602;-64
2022/06/02 01:18:09;;;;;;;8.32;7.47;;;;;;;17.21;82.29;100055.13;5012605;28;20034;-63
2022/06/02 01:20:59;;;;;;;9.93;8.30;;;;;;;16.97;82.45;100057.00;5012566;28;20022;-63
2022/06/02 01:23:56;;;;;;;9.57;7.38;;;;;;;16.78;82.41;100008.03;5012434;28;20061;-64
2022/06/02 01:26:48;;;;;;;9.68;7.20;;;;;;;17.16;81.72;100059.69;5012211;28;20474;-63
2022/06/02 01:29:43;;;;;;;9.68;7.15;;;;;;;17.21;81.71;100060.34;5012307;28;20065;-65
2022/06/02 01:32:14;;;;;;;11.73;7.53;;;;;;;16.84;82.27;100025.25;4999143;28;20057;-63
2022/06/02 01:34:43;;;;;;;9.18;7.22;;;;;;;17.16;82.04;100057.06;5005061;28;20060;-63
2022/06/02 01:37:18;;;;;;;10.10;7.28;;;;;;;17.14;81.72;100064.16;5011770;28;20030;-64
2022/06/02 01:40:04;;;;;;;8.32;7.43;;;;;;;16.99;82.00;100068.28;5012168;28;20046;-64
2022/06/02 01:42:45;;;;;;;8.70;7.20;;;;;;;17.11;81.72;100054.66;5007994;28;20049;-63
2022/06/02 01:45:21;;;;;;;7.68;6.85;;;;;;;16.85;81.66;100006.88;5014373;28;20022;-64
2022/06/02 01:47:52;;;;;;;9.13;7.80;;;;;;;17.16;82.01;100057.06;5014642;28;20447;-64
2022/06/02 01:50:24;;;;;;;9.45;7.28;;;;;;;17.07;81.79;100053.94;5014260;28;20105;-64
2022/06/02 01:52:49;;;;;;;11.55;7.55;;;;;;;16.91;81.86;100052.88;5014052;28;20056;-63
2022/06/02 01:55:34;;;;;;;9.68;8.15;;;;;;;16.82;82.00;100016.63;5013930;28;20518;-63
2022/06/02 01:58:27;;;;;;;11.45;7.85;;;;;;;17.00;82.12;100060.34;5013844;28;20029;-63
2022/06/02 02:01:25;;;;;;;13.05;9.45;;;;;;;17.01;81.87;100058.59;5014042;28;20044;-63
2022/06/02 02:03:55;;;;;;;7.95;7.10;;;;;;;17.08;81.23;100049.56;5009477;28;20060;-62
2022/06/02 02:06:52;;;;;;;11.43;8.68;;;;;;;16.76;81.45;100001.16;5013989;28;20697;-63
2022/06/02 02:09:32;;;;;;;10.13;7.68;;;;;;;17.09;81.47;100046.03;5014034;28;20080;-64
2022/06/02 02:12:00;;;;;;;8.77;7.68;;;;;;;17.06;81.05;100033.09;5012640;28;20029;-64
2022/06/02 02:14:53;;;;;;;14.52;8.35;;;;;;;16.78;81.00;99988.88;5013786;28;20028;-63
2022/06/02 02:17:19;;;;;;;9.40;8.07;;;;;;;17.14;80.90;100053.69;5012103;28;20029;-63
2022/06/02 02:20:03;;;;;;;8.93;6.90;;;;;;;17.14;81.12;100049.28;5012205;28;20048;-64
2022/06/02 02:22:50;;;;;;;8.00;7.20;;;;;;;17.12;81.71;100052.91;5013532;28;20545;-64
2022/06/02 02:25:41;;;;;;;11.70;7.57;;;;;;;17.24;81.08;100049.75;5012938;28;20040;-64
2022/06/02 02:28:17;;;;;;;8.27;7.57;;;;;;;17.30;81.09;100049.50;5012226;28;20438;-64
2022/06/02 02:30:45;;;;;;;10.93;8.20;;;;;;;17.32;80.74;100047.66;5013493;28;20026;-64
2022/06/02 02:33:51;;;;;;;13.90;8.23;;;;;;;17.33;80.67;100048.50;5013340;28;20479;-63
2022/06/02 02:36:41;;;;;;;9.57;7.63;;;;;;;17.36;79.93;100046.59;5013417;28;20030;-64
2022/06/02 02:39:28;;;;;;;7.68;6.97;;;;;;;17.36;80.80;100041.38;5013488;28;20026;-63
2022/06/02 02:42:23;;;;;;;14.52;8.50;;;;;;;17.31;80.09;100045.09;5008717;28;20065;-63
2022/06/02 02:45:10;;;;;;;11.27;7.90;;;;;;;17.33;80.38;100046.75;4989037;28;20072;-63
2022/06/02 02:48:01;;;;;;;10.48;8.35;;;;;;;16.92;79.95;99989.19;5012614;28;20549;-63
2022/06/02 02:50:37;;;;;;;11.32;7.20;;;;;;;16.77;80.24;99976.72;5002204;28;20109;-63
2022/06/02 02:53:17;;;;;;;7.60;6.70;;;;;;;17.25;80.15;100033.13;5012969;28;20372;-63
2022/06/02 02:55:59;;;;;;;7.60;6.85;;;;;;;17.32;79.80;100025.88;5008113;28;20029;-63
2022/06/02 02:58:41;;;;;;;11.93;8.02;;;;;;;17.41;80.10;100036.78;5013243;28;20109;-63
2022/06/02 03:01:20;;;;;;;8.48;7.65;;;;;;;17.13;79.21;99979.56;5010471;28;20025;-63
2022/06/02 03:04:19;;;;;;;7.30;6.70;;;;;;;17.52;79.63;100014.50;5012395;28;20052;-63
2022/06/02 03:06:47;;;;;;;9.35;7.80;;;;;;;17.33;78.83;99980.41;5012741;28;20606;-63
2022/06/02 03:09:26;;;;;;;10.38;7.20;;;;;;;17.33;78.79;99962.09;5006269;28;20033;-63
2022/06/02 03:12:10;;;;;;;7.45;6.75;;;;;;;17.71;77.68;100017.13;4998313;28;20030;-62
2022/06/02 03:14:58;;;;;;;10.10;7.10;;;;;;;17.68;77.79;100010.25;5010844;28;20021;-61
2022/06/02 03:17:45;;;;;;;8.15;7.10;;;;;;;17.74;77.72;100007.38;5012756;28;20029;-61
2022/06/02 03:20:29;;;;;;;9.65;6.45;;;;;;;17.92;77.32;100010.91;5012346;28;20026;-61
2022/06/02 03:23:31;;;;;;;8.05;6.50;;;;;;;17.79;77.59;100001.06;5012428;28;20026;-61
2022/06/02 03:26:19;;;;;;;7.75;5.60;;;;;;;18.10;76.89;100006.59;5012540;28;20080;-61
2022/06/02 03:28:59;;;;;;;7.25;5.57;;;;;;;18.18;75.34;99966.06;5011741;28;20034;-61
2022/06/02 03:31:47;;;;;;;7.05;6.07;;;;;;;18.65;74.14;100012.69;5011787;28;20038;-61
2022/06/02 03:34:18;;;;;;;7.07;5.30;;;;;;;19.01;73.76;99998.69;5010783;28;20032;-61
2022/06/02 03:36:56;;;;;;;6.85;5.05;;;;;;;18.85;72.33;100001.19;5011603;28;20441;-61
2022/06/02 03:39:42;;;;;;;6.22;5.10;;;;;;;18.95;71.95;100005.09;5011781;28;20483;-62
2022/06/02 03:42:10;;;;;;;7.13;4.82;;;;;;;18.84;72.56;100006.53;5010715;28;20021;-62
2022/06/02 03:45:02;;;;;;;6.32;5.00;;;;;;;18.76;72.87;100009.53;5005251;28;20038;-62
2022/06/02 03:47:41;;;;;;;7.50;5.20;;;;;;;18.75;73.06;100007.84;5008151;28;20168;-63
2022/06/02 03:50:25;;;;;;;11.38;5.07;;;;;;;18.73;72.99;100010.53;5008171;28;20430;-63
2022/06/02 03:53:03;;;;;;;15.05;9.60;;;;;;;18.93;72.34;100008.72;5010228;28;20093;-62
2022/06/02 03:55:53;;;;;;;6.32;5.20;;;;;;;19.04;71.76;100011.66;5008910;28;20017;-62
2022/06/02 03:58:53;;;;;;;8.70;4.97;;;;;;;19.05;71.61;100007.25;5010368;28;20048;-62
2022/06/02 04:01:24;;;;;;;7.45;4.88;;;;;;;19.01;71.10;100006.56;5008787;28;20471;-62
2022/06/02 04:03:56;;;;;;;10.25;4.90;;;;;;;19.14;71.96;100020.75;5008929;28;20049;-62
2022/06/02 04:06:48;;;;;;;10.60;5.13;;;;;;;19.18;71.18;100015.34;5006586;28;20553;-62
2022/06/02 04:09:26;;;;;;;8.70;4.63;;;;;;;19.30;71.86;100017.31;5010660;28;20026;-62
2022/06/02 04:15:02;;;;;;;7.93;4.85;;;;;;;19.14;71.87;100025.16;5010395;28;20535;-62
2022/06/02 04:17:31;;;;;;;11.43;5.10;;;;;;;19.01;71.99;100019.69;5007288;28;20080;-62
2022/06/02 04:20:35;;;;;;;8.75;5.03;;;;;;;18.93;71.65;100019.22;5007554;28;20387;-63
2022/06/02 04:23:15;;;;;;;8.95;4.88;;;;;;;19.06;72.32;100028.16;5009620;28;20117;-62
2022/06/02 04:26:23;;;;;;;8.77;4.85;;;;;;;19.22;71.43;100035.25;5011861;28;20033;-62
2022/06/02 04:28:58;;;;;;;6.53;4.57;;;;;;;19.03;71.06;99982.84;5011678;28;20034;-61
2022/06/02 04:31:38;;;;;;;10.35;4.57;;;;;;;19.41;70.76;100033.38;5011958;28;20561;-61
2022/06/02 04:34:53;;;;;;;11.55;4.68;;;;;;;19.29;70.88;100039.25;5010237;28;20041;-62
2022/06/02 04:37:18;;;;;;;8.50;4.13;;;;;;;19.33;71.13;100032.91;5011691;28;20076;-62
2022/06/02 04:39:56;;;;;;;11.90;5.38;;;;;;;19.31;70.40;100029.50;5011845;28;20539;-62
2022/06/02 04:42:47;;;;;;;12.55;4.95;;;;;;;19.45;70.19;100026.16;5015329;28;20030;-62
2022/06/02 04:45:27;;;;;;;15.73;5.23;;;;;;;19.29;70.46;99982.31;5015419;28;20117;-63
2022/06/02 04:47:58;;;;;;;12.90;4.78;;;;;;;19.76;70.61;100030.63;5015511;28;20033;-62
2022/06/02 04:50:59;;;;;;;10.88;4.60;;;;;;;19.89;70.50;100038.72;5015195;28;20026;-62
2022/06/02 04:53:58;;;;;;;9.15;4.50;;;;;;;19.98;69.01;100037.38;5014873;28;20030;-62
2022/06/02 04:56:30;;;;;;;7.10;3.83;;;;;;;20.05;69.21;100035.25;5015191;28;20095;-64
2022/06/02 04:59:12;;;;;;;10.27;5.00;;;;;;;20.04;69.14;100031.78;5015225;28;20045;-63
2022/06/02 05:02:05;;;;;;;12.75;4.55;;;;;;;20.26;68.88;100038.47;5015076;28;20069;-63
2022/06/02 05:04:43;;;;;;;11.48;5.22;;;;;;;20.36;67.80;100026.50;5014779;28;20122;-63
2022/06/02 05:07:21;;;;;;;10.23;5.18;;;;;;;20.44;67.08;100021.66;5014947;28;20066;-64
2022/06/02 05:10:29;;;;;;;8.80;4.63;;;;;;;20.59;66.97;100019.91;5014894;28;20034;-62
2022/06/02 05:13:11;;;;;;;7.97;5.25;;;;;;;20.65;66.05;100018.72;5014684;28;20022;-63
2022/06/02 05:15:46;;;;;;;7.95;4.72;;;;;;;21.09;66.36;100019.69;5014967;28;20068;-61
2022/06/02 05:18:24;;;;;;;7.43;4.35;;;;;;;21.05;66.24;100021.69;5014856;28;20038;-61
2022/06/02 05:21:28;;;;;;;10.13;4.82;;;;;;;21.26;66.14;100016.03;4995302;28;20030;-62
2022/06/02 05:24:16;;;;;;;8.27;4.72;;;;;;;21.27;64.26;100009.84;5000089;28;20053;-62
2022/06/02 05:27:19;;;;;;;9.43;4.82;;;;;;;21.37;64.63;100008.34;5014087;28;20026;-62
2022/06/02 05:30:26;;;;;;;11.65;4.82;;;;;;;21.55;64.71;100014.31;5013204;28;20038;-62
2022/06/02 05:32:51;;;;;;;9.05;5.00;;;;;;;21.71;65.35;100014.19;4995535;28;20057;-62
2022/06/02 05:35:48;;;;;;;9.07;4.43;;;;;;;21.67;64.96;100017.97;5014220;28;20022;-63
2022/06/02 05:38:36;;;;;;;8.52;4.80;;;;;;;21.66;65.14;100008.34;5014186;28;20131;-62
2022/06/02 05:41:14;;;;;;;15.15;5.00;;;;;;;21.59;63.93;99997.34;5014504;28;20018;-61
2022/06/02 05:44:00;;;;;;;8.45;4.70;;;;;;;21.58;64.73;100003.56;5005085;28;20411;-61
2022/06/02 05:46:37;;;;;;;9.13;4.88;;;;;;;21.56;65.14;100002.78;5014065;28;20026;-62
2022/06/02 05:49:16;;;;;;;8.73;5.05;;;;;;;21.43;64.77;100005.31;5014394;28;20033;-62
2022/06/02 05:51:57;;;;;;;7.40;4.68;;;;;;;21.62;64.24;99999.78;5013419;28;20033;-62
2022/06/02 05:54:41;;;;;;;10.20;4.65;;;;;;;21.58;65.23;100002.69;5013579;28;20108;-61
2022/06/02 05:57:18;;;;;;;11.23;4.90;;;;;;;21.84;64.73;100003.72;5013352;28;20086;-61
2022/06/02 05:59:50;;;;;;;6.32;4.57;;;;;;;21.61;64.11;99997.25;5012102;28;20024;-61
2022/06/02 06:02:24;;;;;;;7.72;3.72;;;;;;;21.84;63.63;99994.00;5012069;28;20486;-61
2022/06/02 06:05:16;;;;;;;7.35;3.88;;;;;;;21.94;64.86;99989.00;5010741;28;20163;-64
2022/06/02 06:07:51;;;;;;;9.18;4.30;;;;;;;21.78;63.72;99999.66;5010582;28;20140;-63
2022/06/02 06:10:29;;;;;;;6.53;3.80;;;;;;;21.93;63.81;99997.84;5013711;28;20105;-63
2022/06/02 06:13:18;;;;;;;9.10;3.33;;;;;;;22.10;64.08;99996.75;5009951;28;20129;-63
2022/06/02 06:16:03;;;;;;;10.05;3.80;;;;;;;21.93;62.57;99963.56;4998462;28;20092;-63
2022/06/02 06:18:53;;;;;;;7.28;3.85;;;;;;;21.89;63.28;99965.56;5013834;28;20072;-62
2022/06/02 06:21:55;;;;;;;4.53;4.10;;;;;;;21.91;64.30;99991.00;5013764;28;20113;-63
2022/06/02 06:24:37;;;;;;;10.98;4.47;;;;;;;21.98;64.20;100010.75;5013307;28;20423;-62
2022/06/02 06:27:15;;;;;;;6.45;4.35;;;;;;;22.11;64.44;99995.81;5012782;28;20037;-63
2022/06/02 06:30:06;;;;;;;8.88;3.88;;;;;;;22.19;64.02;99982.97;5012463;28;20030;-62
2022/06/02 06:33:14;;;;;;;8.63;3.97;;;;;;;22.29;64.34;99982.38;5013348;28;20034;-62
2022/06/02 06:35:58;;;;;;;7.63;4.40;;;;;;;22.26;62.80;99980.81;5008438;28;20050;-61
2022/06/02 06:39:01;;;;;;;9.10;4.45;;;;;;;22.21;63.60;99981.06;5009182;28;20026;-62
2022/06/02 06:41:32;;;;;;;9.07;4.60;;;;;;;22.24;63.42;99986.16;5008222;28;20030;-62
2022/06/02 06:44:16;;;;;;;7.35;3.80;;;;;;;22.52;63.54;99983.53;5011345;28;20449;-62
2022/06/02 06:46:53;;;;;;;9.23;4.82;;;;;;;22.52;62.34;99984.38;5021082;28;20080;-62
2022/06/02 06:49:38;;;;;;;9.02;4.43;;;;;;;22.65;62.70;99973.00;5014005;28;20034;-63
2022/06/02 06:52:11;;;;;;;10.32;4.55;;;;;;;22.29;62.15;99940.16;5011906;28;20030;-62
2022/06/02 06:55:14;;;;;;;8.52;4.28;;;;;;;22.63;62.41;99975.75;5009691;28;20049;-63
2022/06/02 06:58:14;;;;;;;8.68;4.10;;;;;;;22.75;62.64;99947.66;5028454;28;20033;-63
2022/06/02 07:01:09;;;;;;;5.63;4.40;;;;;;;22.97;62.79;99972.59;5022877;28;20164;-62
2022/06/02 07:04:02;;;;;;;8.18;4.00;;;;;;;22.85;63.91;99969.84;5019239;28;20176;-63
2022/06/02 07:06:34;;;;;;;6.18;4.15;;;;;;;23.09;63.10;99971.75;5019777;28;20037;-63
2022/06/02 07:09:16;;;;;;;6.93;4.40;;;;;;;22.62;61.63;99926.53;5016680;28;20033;-63
2022/06/02 07:14:54;;;;;;;6.32;3.60;;;;;;;23.00;62.34;99972.38;5011326;28;20113;-62
2022/06/02 07:17:38;;;;;;;10.68;4.20;;;;;;;23.20;62.38;99982.47;5009068;28;20038;-62
2022/06/02 07:20:29;;;;;;;14.82;6.78;;;;;;;23.10;61.51;99952.28;5009895;28;20033;-62
2022/06/02 07:23:18;;;;;;;;;;;;;;;23.20;61.27;99984.25;5011845;28;20022;-62
2022/06/02 07:26:17;;;;;;;7.95;4.75;;;;;;;23.06;61.13;99983.38;5009394;28;19913;-63
2022/06/02 07:29:12;;;;;;;6.40;4.22;;;;;;;22.85;62.56;99990.13;5009378;28;20021;-63
2022/06/02 07:32:29;;;;;;;12.07;4.97;;;;;;;23.25;62.33;99993.53;5008762;28;20017;-63
2022/06/02 07:35:42;;;;;;;9.35;4.88;;;;;;;23.32;61.36;100003.72;4989443;28;21033;-62
2022/06/02 07:38:26;;;;;;;7.03;4.13;;;;;;;23.35;61.94;100004.31;4984524;28;20030;-63
2022/06/02 07:41:23;;;;;;;7.50;4.60;;;;;;;23.46;60.52;100006.22;4990709;28;20460;-64
2022/06/02 07:44:28;;;;;;;8.68;3.95;;;;;;;23.63;61.14;100001.53;4988246;28;20037;-65
2022/06/02 07:47:06;;;;;;;9.68;4.40;;;;;;;23.77;61.31;100004.03;4999046;28;20084;-64
2022/06/02 07:49:48;;;;;;;6.57;4.28;;;;;;;23.85;59.77;99998.22;4997249;28;20080;-64
2022/06/02 07:52:29;;;;;;;8.65;4.35;;;;;;;23.88;60.49;99993.56;4994138;28;20149;-63
2022/06/02 07:55:11;;;;;;;11.70;5.15;;;;;;;23.86;60.51;99998.09;4989892;28;20531;-64
2022/06/02 07:57:54;;;;;;;7.72;5.30;;;;;;;23.77;60.04;100006.69;4989817;28;20066;-64
2022/06/02 08:00:22;;;;;;;10.82;5.85;;;;;;;23.61;60.28;99960.19;4990020;28;20070;-63
2022/06/02 08:02:56;;;;;;;13.20;5.60;;;;;;;23.97;59.49;99996.50;4989785;28;20044;-63
2022/06/02 08:05:44;;;;;;;10.40;4.32;;;;;;;24.11;60.36;99997.19;4999646;28;20045;-64
2022/06/02 08:08:35;;;;;;;8.82;4.65;;;;;;;23.86;59.08;99965.53;5007378;28;20034;-65
2022/06/02 08:11:24;;;;;;;7.65;4.18;;;;;;;24.11;58.95;99996.34;5005500;28;20058;-65
2022/06/02 08:14:02;;;;;;;7.40;3.50;;;;;;;24.18;59.15;99997.56;5009723;28;20038;-65
2022/06/02 08:16:35;;;;;;;6.95;3.63;;;;;;;24.28;59.45;99995.97;5014699;28;20029;-64
2022/06/02 08:19:25;;;;;;;8.05;4.43;;;;;;;24.36;59.63;99997.19;5014163;28;20041;-66
2022/06/02 08:22:01;;;;;;;9.32;4.80;;;;;;;24.26;59.09;99963.44;5010997;28;20092;-65
2022/06/02 08:24:40;;;;;;;8.60;5.30;;;;;;;24.40;58.64;99996.84;5008259;28;20065;-64
2022/06/02 08:27:26;;;;;;;8.48;5.57;;;;;;;24.34;59.45;99991.97;5014169;28;20345;-63
2022/06/02 08:30:01;;;;;;;10.10;5.53;;;;;;;24.60;58.55;99999.84;5011567;28;20427;-64
2022/06/02 08:32:48;;;;;;;10.65;6.07;;;;;;;24.44;58.78;99994.78;5015160;28;20112;-64
2022/06/02 08:35:16;;;;;;;6.60;5.00;;;;;;;24.37;58.64;99986.50;5014061;28;20466;-65
2022/06/02 08:38:04;;;;;;;12.25;6.38;;;;;;;24.43;57.84;99991.31;5015283;28;20030;-63
2022/06/02 08:40:48;;;;;;;10.57;5.40;;;;;;;24.68;58.47;99997.44;5007491;28;20029;-65
2022/06/02 08:43:25;;;;;;;8.65;5.13;;;;;;;24.45;57.62;99949.66;5014856;28;20080;-65
2022/06/02 08:46:12;;;;;;;8.93;5.20;;;;;;;24.76;58.01;100002.16;5015162;28;20802;-64
2022/06/02 08:48:53;;;;;;;7.85;4.88;;;;;;;24.96;58.47;99995.34;5014233;28;20022;-65
2022/06/02 08:51:18;;;;;;;7.60;5.40;;;;;;;24.66;56.75;100004.66;5013308;28;20038;-64
2022/06/02 08:54:11;;;;;;;34.13;22.25;;;;;;;24.42;57.66;100004.66;5029540;28;20021;-65
2022/06/02 08:56:55;;;;;;;12.95;5.57;;;;;;;24.69;58.03;99998.31;5011803;28;20062;-64
2022/06/02 08:59:42;;;;;;;8.80;4.88;;;;;;;24.93;58.42;99990.28;5014073;28;20029;-63
2022/06/02 09:02:22;;;;;;;8.98;5.03;;;;;;;25.07;56.96;99992.72;5012315;28;20030;-64
2022/06/02 09:05:25;;;;;;;6.72;3.88;;;;;;;25.30;56.52;99990.09;5013332;28;20049;-64
2022/06/02 09:08:05;;;;;;;7.50;4.03;;;;;;;25.49;57.86;99990.34;5008375;28;20034;-64
2022/06/02 09:10:37;;;;;;;10.57;4.53;;;;;;;25.60;57.50;99997.44;5014329;28;20476;-63
2022/06/02 09:13:27;;;;;;;7.80;3.88;;;;;;;25.48;55.78;99993.09;5014844;28;20025;-63
2022/06/02 09:15:56;;;;;;;9.07;4.50;;;;;;;25.29;55.56;99994.53;5015007;28;20464;-64
2022/06/02 09:18:48;;;;;;;7.90;5.38;;;;;;;25.18;55.82;99989.22;5011774;28;20031;-64
2022/06/02 09:21:26;;;;;;;7.93;4.82;;;;;;;25.23;56.34;99991.53;5023658;28;20029;-64
2022/06/02 09:24:41;;;;;;;8.02;4.18;;;;;;;25.16;55.86;99981.38;5009951;28;20033;-64
2022/06/02 09:27:31;;;;;;;8.60;4.43;;;;;;;25.32;56.45;99986.38;5011531;28;20057;-64
2022/06/02 09:30:12;;;;;;;9.75;4.85;;;;;;;25.29;55.84;99978.63;5013111;28;20033;-63
2022/06/02 09:33:33;;;;;;;13.20;5.18;;;;;;;25.55;56.96;99972.25;5010681;28;20144;-64
2022/06/02 09:36:20;;;;;;;10.65;5.68;;;;;;;25.35;55.48;99979.13;5011046;28;20068;-65
2022/06/02 09:39:10;;;;;;;10.07;5.80;;;;;;;25.37;55.25;99970.09;5009696;28;20117;-64
2022/06/02 09:41:47;;;;;;;8.98;5.10;;;;;;;25.44;56.61;99971.31;5008115;28;20056;-64
2022/06/02 09:44:13;;;;;;;6.93;5.43;;;;;;;25.46;56.13;99973.84;5012934;28;20084;-64
2022/06/02 09:46:59;;;;;;;9.02;4.85;;;;;;;25.44;57.20;99960.69;5012731;28;20034;-64
2022/06/02 09:49:25;;;;;;;8.63;4.35;;;;;;;25.50;55.97;99964.66;5011110;28;20037;-63
2022/06/02 09:52:14;;;;;;;6.15;4.65;;;;;;;25.69;56.16;99973.81;5012679;28;20108;-63
2022/06/02 09:55:09;;;;;;;7.32;4.85;;;;;;;25.76;55.03;99961.72;5011647;28;20048;-64
2022/06/02 09:57:55;;;;;;;9.13;4.38;;;;;;;25.82;56.20;99964.75;5011614;28;20045;-65
2022/06/02 10:00:43;;;;;;;10.63;4.65;;;;;;;25.49;55.61;99923.19;5011320;28;20029;-64
2022/06/02 10:03:18;;;;;;;9.25;4.88;;;;;;;25.72;55.56;99955.81;5012310;28;20491;-63
2022/06/02 10:06:23;;;;;;;10.30;4.40;;;;;;;25.80;55.25;99950.75;5010000;28;20458;-63
2022/06/02 10:09:00;;;;;;;10.80;4.78;;;;;;;25.77;55.22;99944.84;5004122;28;20033;-64
2022/06/02 10:12:54;;;;;;;10.32;4.78;;;;;;;25.96;55.23;99947.66;5004411;28;20519;-64
2022/06/02 10:15:18;;;;;;;8.40;4.43;;;;;;;25.69;54.94;99905.66;5013241;28;20124;-64
2022/06/02 10:17:43;;;;;;;6.93;4.57;;;;;;;26.02;54.93;99935.75;5013534;28;20072;-65
2022/06/02 10:20:48;;;;;;;9.25;4.72;;;;;;;26.08;54.52;99932.59;5013706;28;20025;-64
2022/06/02 10:23:53;;;;;;;9.23;4.70;;;;;;;25.72;54.83;99896.63;5013586;28;20018;-64
2022/06/02 10:26:44;;;;;;;6.75;4.72;;;;;;;25.65;54.63;99894.47;5013646;28;20041;-64
2022/06/02 10:29:43;;;;;;;10.07;4.90;;;;;;;25.60;54.70;99898.47;5006428;28;20033;-64
2022/06/02 10:32:28;;;;;;;7.32;4.30;;;;;;;25.83;54.67;99931.91;5006188;28;20416;-65
2022/06/02 10:35:25;;;;;;;11.38;4.93;;;;;;;25.55;54.03;99927.16;5013083;28;20121;-64
2022/06/02 10:38:19;;;;;;;8.82;4.43;;;;;;;25.90;54.87;99942.03;4992163;28;20048;-65
2022/06/02 10:40:45;;;;;;;11.68;4.82;;;;;;;25.97;54.65;99933.44;5013242;28;20201;-63
2022/06/02 10:43:37;;;;;;;10.77;4.65;;;;;;;26.01;52.74;99936.72;5011823;28;20542;-64
2022/06/02 10:46:12;;;;;;;5.57;4.82;;;;;;;25.87;53.45;99932.50;5013202;28;20044;-63
2022/06/02 10:49:15;;;;;;;6.50;4.72;;;;;;;25.94;53.38;99930.22;5011864;28;20048;-64
2022/06/02 10:52:18;;;;;;;6.88;4.35;;;;;;;26.08;52.85;99918.47;5012515;28;20360;-63
2022/06/02 10:55:18;;;;;;;5.72;3.88;;;;;;;26.24;52.92;99929.50;5006012;28;20074;-64
2022/06/02 10:58:09;;;;;;;4.53;3.35;;;;;;;26.42;52.34;99931.59;5007689;28;20060;-64
2022/06/02 11:00:43;;;;;;;6.07;4.28;;;;;;;26.30;50.95;99928.97;5012787;28;20081;-63
2022/06/02 11:03:26;;;;;;;6.72;4.40;;;;;;;26.16;52.31;99935.44;5012414;28;20034;-65
2022/06/02 11:06:36;;;;;;;8.10;4.15;;;;;;;26.36;52.65;99932.94;5012438;28;20479;-65
2022/06/02 11:09:32;;;;;;;6.82;3.78;;;;;;;26.27;53.24;99892.06;5012439;28;20379;-65
2022/06/02 11:12:35;;;;;;;7.35;4.57;;;;;;;26.57;52.66;99932.94;5012590;28;20061;-64
2022/06/02 11:15:04;;;;;;;6.25;4.63;;;;;;;26.40;51.73;99925.56;5012508;28;20033;-63
2022/06/02 11:18:10;;;;;;;6.57;3.90;;;;;;;26.18;51.21;99917.59;5012698;28;20105;-64
2022/06/02 11:21:18;;;;;;;6.05;4.13;;;;;;;26.37;51.95;99931.97;5012264;28;20030;-64
2022/06/02 11:24:16;;;;;;;8.00;5.50;;;;;;;26.27;52.06;99931.91;5012620;28;20037;-63
2022/06/02 11:27:28;;;;;;;6.05;3.90;;;;;;;25.92;51.65;99913.56;4965707;28;20072;-65
2022/06/02 11:30:02;;;;;;;;;;;;;;;25.76;52.28;99890.09;5012525;28;20037;-64
2022/06/02 11:32:47;;;;;;;7.63;4.47;;;;;;;26.05;52.80;99916.06;5010409;28;19913;-65
2022/06/02 11:35:49;;;;;;;7.10;4.68;;;;;;;26.04;54.03;99917.91;5010181;28;20038;-64
2022/06/02 11:38:40;;;;;;;5.72;4.60;;;;;;;25.94;52.50;99935.53;5012003;28;20068;-64
2022/06/02 11:41:15;;;;;;;6.07;4.20;;;;;;;25.83;53.27;99931.06;4988860;28;20487;-64
2022/06/02 11:44:01;;;;;;;6.53;4.40;;;;;;;25.87;55.29;99927.22;5011833;28;20065;-64
2022/06/02 11:46:30;;;;;;;7.63;5.38;;;;;;;25.90;54.22;99929.59;5011645;28;20088;-63
2022/06/02 11:49:21;;;;;;;8.90;5.75;;;;;;;25.84;53.56;99919.50;5010957;28;20100;-65
2022/06/02 11:51:54;;;;;;;6.22;3.90;;;;;;;25.82;52.99;99922.28;4992785;28;20042;-64
2022/06/02 11:54:40;;;;;;;6.63;4.72;;;;;;;25.80;53.31;99923.38;5011061;28;20022;-64
2022/06/02 11:57:18;;;;;;;6.82;4.38;;;;;;;25.79;53.78;99919.03;5011777;28;20487;-65
2022/06/02 12:00:02;;;;;;;6.43;4.63;;;;;;;25.79;53.68;99924.34;5010188;28;20037;-64
2022/06/02 12:03:09;;;;;;;9.32;5.50;;;;;;;25.83;54.66;99921.28;5011750;28;20026;-64
2022/06/02 12:06:05;;;;;;;8.40;4.97;;;;;;;25.77;55.58;99924.47;5011513;28;20037;-64
2022/06/02 12:08:52;;;;;;;7.15;4.65;;;;;;;25.71;54.06;99927.63;5010371;28;20046;-64
2022/06/02 12:11:42;;;;;;;6.05;4.60;;;;;;;25.71;54.25;99924.09;5011759;28;20026;-65
2022/06/02 12:14:25;;;;;;;9.00;5.70;;;;;;;25.68;54.93;99911.94;5011558;28;20046;-64
2022/06/02 12:17:32;;;;;;;6.22;4.38;;;;;;;25.72;54.19;99913.38;5012171;28;20406;-64
2022/06/02 12:20:16;;;;;;;10.23;4.60;;;;;;;25.78;54.04;99912.03;4994088;28;20022;-65
2022/06/02 12:23:02;;;;;;;7.78;4.75;;;;;;;25.80;53.85;99918.06;5011651;28;20030;-64
2022/06/02 12:25:31;;;;;;;10.48;5.45;;;;;;;25.89;53.79;99898.72;4997958;28;20037;-64
2022/06/02 12:28:34;;;;;;;11.27;5.05;;;;;;;25.97;54.70;99901.59;5010308;28;20034;-64
2022/06/02 12:31:40;;;;;;;8.93;4.70;;;;;;;26.00;54.15;99898.72;5011665;28;20117;-65
2022/06/02 12:34:25;;;;;;;6.38;5.07;;;;;;;26.14;54.29;99896.72;5011582;28;20047;-64
2022/06/02 12:37:07;;;;;;;11.45;4.88;;;;;;;26.15;54.04;99895.75;5011782;28;20045;-64
2022/06/02 12:39:54;;;;;;;7.28;4.55;;;;;;;26.01;54.15;99897.75;5011418;28;20105;-65
2022/06/02 12:42:27;;;;;;;7.78;4.68;;;;;;;25.97;54.04;99898.94;4999291;28;20063;-66
2022/06/02 12:45:30;;;;;;;8.77;4.43;;;;;;;25.99;54.19;99891.66;5011525;28;20058;-64
2022/06/02 12:48:32;;;;;;;7.18;4.38;;;;;;;25.95;53.67;99890.28;5011542;28;20026;-63
2022/06/02 12:51:23;;;;;;;7.78;4.60;;;;;;;25.99;53.90;99888.19;5008230;28;20025;-62
2022/06/02 12:53:54;;;;;;;8.25;6.18;;;;;;;26.02;53.91;99880.00;5009242;28;20026;-61
2022/06/02 12:56:39;;;;;;;7.53;4.85;;;;;;;26.01;53.91;99876.50;5010597;28;20491;-61
2022/06/02 12:59:07;;;;;;;9.80;4.90;;;;;;;25.96;53.60;99886.63;5011594;28;20406;-62